sensor_id;sensor_type;location;lat;lon;timestamp;pressure;altitude;pressure_sealevel;temperature;humidity
35577;BME280;21680;52.400;16.920;2024-01-30T00:01:43;102268.47;;;2.99;78.91
35577;BME280;21680;52.400;16.920;2024-01-30T00:04:08;102272.20;;;3.01;78.74
35577;BME280;21680;52.400;16.920;2024-01-30T00:06:33;102277.84;;;3.00;78.76
35577;BME280;21680;52.400;16.920;2024-01-30T00:09:00;102279.61;;;3.00;78.74
35577;BME280;21680;52.400;16.920;2024-01-30T00:11:25;102275.90;;;3.01;79.08
35577;BME280;21680;52.400;16.920;2024-01-30T00:13:54;102275.55;;;3.00;78.95
35577;BME280;21680;52.400;16.920;2024-01-30T00:16:22;102279.25;;;3.00;78.87
35577;BME280;21680;52.400;16.920;2024-01-30T00:18:50;102274.79;;;2.97;78.82
35577;BME280;21680;52.400;16.920;2024-01-30T00:21:15;102272.33;;;2.97;78.79
35577;BME280;21680;52.400;16.920;2024-01-30T00:23:41;102273.02;;;2.98;78.86
35577;BME280;21680;52.400;16.920;2024-01-30T00:26:06;102269.29;;;2.95;78.80
35577;BME280;21680;52.400;16.920;2024-01-30T00:28:31;102271.05;;;2.94;78.77
35577;BME280;21680;52.400;16.920;2024-01-30T00:30:57;102267.68;;;2.94;78.91
35577;BME280;21680;52.400;16.920;2024-01-30T00:33:22;102266.10;;;2.94;78.98
35577;BME280;21680;52.400;16.920;2024-01-30T00:35:47;102268.77;;;2.95;78.85
35577;BME280;21680;52.400;16.920;2024-01-30T00:38:12;102267.84;;;2.92;78.89
35577;BME280;21680;52.400;16.920;2024-01-30T00:40:37;102267.48;;;2.92;78.86
35577;BME280;21680;52.400;16.920;2024-01-30T00:43:03;102266.19;;;2.88;78.64
35577;BME280;21680;52.400;16.920;2024-01-30T00:45:29;102270.60;;;2.88;78.91
35577;BME280;21680;52.400;16.920;2024-01-30T00:47:54;102271.33;;;2.89;78.77
35577;BME280;21680;52.400;16.920;2024-01-30T00:50:20;102267.61;;;2.88;78.74
35577;BME280;21680;52.400;16.920;2024-01-30T00:52:45;102268.98;;;2.85;78.66
35577;BME280;21680;52.400;16.920;2024-01-30T00:55:10;102269.84;;;2.83;78.66
35577;BME280;21680;52.400;16.920;2024-01-30T00:57:36;102264.84;;;2.79;78.55
35577;BME280;21680;52.400;16.920;2024-01-30T01:00:02;102260.91;;;2.77;78.87
35577;BME280;21680;52.400;16.920;2024-01-30T01:02:28;102267.50;;;2.81;78.90
35577;BME280;21680;52.400;16.920;2024-01-30T01:04:53;102265.52;;;2.79;78.55
35577;BME280;21680;52.400;16.920;2024-01-30T01:07:19;102261.44;;;2.77;78.66
35577;BME280;21680;52.400;16.920;2024-01-30T01:09:44;102261.60;;;2.76;78.66
35577;BME280;21680;52.400;16.920;2024-01-30T01:12:09;102260.30;;;2.71;78.59
35577;BME280;21680;52.400;16.920;2024-01-30T01:14:34;102258.53;;;2.71;78.77
35577;BME280;21680;52.400;16.920;2024-01-30T01:17:01;102259.95;;;2.71;78.69
35577;BME280;21680;52.400;16.920;2024-01-30T01:19:26;102256.40;;;2.70;78.71
35577;BME280;21680;52.400;16.920;2024-01-30T01:21:51;102254.63;;;2.69;78.77
35577;BME280;21680;52.400;16.920;2024-01-30T01:24:17;102251.08;;;2.68;78.65
35577;BME280;21680;52.400;16.920;2024-01-30T01:26:42;102253.36;;;2.68;78.84
35577;BME280;21680;52.400;16.920;2024-01-30T01:29:07;102255.98;;;2.66;78.76
35577;BME280;21680;52.400;16.920;2024-01-30T01:31:37;102254.91;;;2.65;78.78
35577;BME280;21680;52.400;16.920;2024-01-30T01:34:12;102250.67;;;2.65;78.77
35577;BME280;21680;52.400;16.920;2024-01-30T01:36:38;102254.34;;;2.62;78.44
35577;BME280;21680;52.400;16.920;2024-01-30T01:39:03;102250.77;;;2.57;78.80
35577;BME280;21680;52.400;16.920;2024-01-30T01:41:32;102247.59;;;2.56;78.72
35577;BME280;21680;52.400;16.920;2024-01-30T01:43:59;102245.83;;;2.57;78.78
35577;BME280;21680;52.400;16.920;2024-01-30T01:46:27;102246.70;;;2.57;78.94
35577;BME280;21680;52.400;16.920;2024-01-30T01:48:53;102252.88;;;2.56;78.74
35577;BME280;21680;52.400;16.920;2024-01-30T01:51:19;102256.02;;;2.54;78.70
35577;BME280;21680;52.400;16.920;2024-01-30T01:53:45;102253.20;;;2.54;78.81
35577;BME280;21680;52.400;16.920;2024-01-30T01:56:10;102252.28;;;2.52;78.58
35577;BME280;21680;52.400;16.920;2024-01-30T01:58:36;102255.64;;;2.52;78.58
35577;BME280;21680;52.400;16.920;2024-01-30T02:01:02;102255.79;;;2.50;78.55
35577;BME280;21680;52.400;16.920;2024-01-30T02:03:30;102252.06;;;2.50;78.77
35577;BME280;21680;52.400;16.920;2024-01-30T02:05:56;102250.95;;;2.47;78.55
35577;BME280;21680;52.400;16.920;2024-01-30T02:08:22;102247.23;;;2.46;78.70
35577;BME280;21680;52.400;16.920;2024-01-30T02:10:48;102245.77;;;2.42;78.56
35577;BME280;21680;52.400;16.920;2024-01-30T02:13:13;102243.77;;;2.38;78.74
35577;BME280;21680;52.400;16.920;2024-01-30T02:15:38;102241.98;;;2.37;78.62
35577;BME280;21680;52.400;16.920;2024-01-30T02:18:03;102245.16;;;2.37;78.63
35577;BME280;21680;52.400;16.920;2024-01-30T02:20:30;102246.05;;;2.37;78.78
35577;BME280;21680;52.400;16.920;2024-01-30T02:22:58;102245.88;;;2.37;78.67
35577;BME280;21680;52.400;16.920;2024-01-30T02:25:39;102246.43;;;2.39;78.79
35577;BME280;21680;52.400;16.920;2024-01-30T02:28:12;102243.08;;;2.39;78.76
35577;BME280;21680;52.400;16.920;2024-01-30T02:30:38;102242.71;;;2.39;78.63
35577;BME280;21680;52.400;16.920;2024-01-30T02:33:03;102245.52;;;2.37;78.61
35577;BME280;21680;52.400;16.920;2024-01-30T02:35:29;102246.71;;;2.35;78.79
35577;BME280;21680;52.400;16.920;2024-01-30T02:37:54;102243.88;;;2.34;78.72
35577;BME280;21680;52.400;16.920;2024-01-30T02:40:19;102241.43;;;2.35;78.76
35577;BME280;21680;52.400;16.920;2024-01-30T02:42:44;102245.48;;;2.35;78.62
35577;BME280;21680;52.400;16.920;2024-01-30T02:45:10;102242.10;;;2.33;78.50
35577;BME280;21680;52.400;16.920;2024-01-30T02:47:36;102239.30;;;2.34;78.76
35577;BME280;21680;52.400;16.920;2024-01-30T02:50:03;102239.10;;;2.33;78.69
35577;BME280;21680;52.400;16.920;2024-01-30T02:52:28;102236.77;;;2.31;78.69
35577;BME280;21680;52.400;16.920;2024-01-30T02:54:54;102236.41;;;2.30;78.72
35577;BME280;21680;52.400;16.920;2024-01-30T02:57:19;102235.86;;;2.28;78.64
35577;BME280;21680;52.400;16.920;2024-01-30T02:59:44;102231.06;;;2.27;78.68
35577;BME280;21680;52.400;16.920;2024-01-30T03:02:09;102233.34;;;2.25;78.58
35577;BME280;21680;52.400;16.920;2024-01-30T03:04:34;102236.65;;;2.23;78.72
35577;BME280;21680;52.400;16.920;2024-01-30T03:07:00;102237.14;;;2.20;78.60
35577;BME280;21680;52.400;16.920;2024-01-30T03:09:25;102235.02;;;2.20;78.54
35577;BME280;21680;52.400;16.920;2024-01-30T03:11:50;102229.70;;;2.18;78.58
35577;BME280;21680;52.400;16.920;2024-01-30T03:14:16;102228.13;;;2.19;78.72
35577;BME280;21680;52.400;16.920;2024-01-30T03:16:42;102225.98;;;2.17;78.67
35577;BME280;21680;52.400;16.920;2024-01-30T03:19:07;102222.77;;;2.15;78.75
35577;BME280;21680;52.400;16.920;2024-01-30T03:21:34;102224.48;;;2.13;78.64
35577;BME280;21680;52.400;16.920;2024-01-30T03:24:00;102223.39;;;2.11;78.71
35577;BME280;21680;52.400;16.920;2024-01-30T03:26:25;102222.50;;;2.10;78.62
35577;BME280;21680;52.400;16.920;2024-01-30T03:28:51;102225.68;;;2.10;78.60
35577;BME280;21680;52.400;16.920;2024-01-30T03:31:17;102226.20;;;2.10;78.79
35577;BME280;21680;52.400;16.920;2024-01-30T03:33:44;102223.93;;;2.11;78.70
35577;BME280;21680;52.400;16.920;2024-01-30T03:36:11;102220.59;;;2.11;78.79
35577;BME280;21680;52.400;16.920;2024-01-30T03:38:36;102217.40;;;2.11;78.85
35577;BME280;21680;52.400;16.920;2024-01-30T03:41:02;102218.11;;;2.11;78.67
35577;BME280;21680;52.400;16.920;2024-01-30T03:43:27;102215.64;;;2.11;78.89
35577;BME280;21680;52.400;16.920;2024-01-30T03:45:52;102216.87;;;2.10;78.82
35577;BME280;21680;52.400;16.920;2024-01-30T03:48:18;102216.00;;;2.11;78.99
35577;BME280;21680;52.400;16.920;2024-01-30T03:50:44;102214.61;;;2.12;78.90
35577;BME280;21680;52.400;16.920;2024-01-30T03:53:09;102217.23;;;2.11;78.70
35577;BME280;21680;52.400;16.920;2024-01-30T03:55:34;102221.61;;;2.09;78.62
35577;BME280;21680;52.400;16.920;2024-01-30T03:58:00;102220.69;;;2.07;78.84
35577;BME280;21680;52.400;16.920;2024-01-30T04:00:25;102227.62;;;2.10;78.89
35577;BME280;21680;52.400;16.920;2024-01-30T04:02:50;102227.95;;;2.09;78.63
35577;BME280;21680;52.400;16.920;2024-01-30T04:05:16;102228.66;;;2.09;78.70
35577;BME280;21680;52.400;16.920;2024-01-30T04:07:42;102225.14;;;2.09;78.82
35577;BME280;21680;52.400;16.920;2024-01-30T04:10:09;102231.17;;;2.12;78.85
35577;BME280;21680;52.400;16.920;2024-01-30T04:12:35;102229.23;;;2.12;78.74
35577;BME280;21680;52.400;16.920;2024-01-30T04:15:01;102227.94;;;2.08;78.73
35577;BME280;21680;52.400;16.920;2024-01-30T04:17:26;102231.11;;;2.08;78.80
35577;BME280;21680;52.400;16.920;2024-01-30T04:19:53;102233.44;;;2.10;78.97
35577;BME280;21680;52.400;16.920;2024-01-30T04:22:18;102234.14;;;2.10;78.92
35577;BME280;21680;52.400;16.920;2024-01-30T04:24:43;102231.89;;;2.12;78.78
35577;BME280;21680;52.400;16.920;2024-01-30T04:27:09;102233.01;;;2.16;78.79
35577;BME280;21680;52.400;16.920;2024-01-30T04:29:34;102230.55;;;2.16;78.87
35577;BME280;21680;52.400;16.920;2024-01-30T04:31:59;102236.70;;;2.15;78.88
35577;BME280;21680;52.400;16.920;2024-01-30T04:34:24;102233.33;;;2.14;78.74
35577;BME280;21680;52.400;16.920;2024-01-30T04:36:50;102236.31;;;2.14;78.73
35577;BME280;21680;52.400;16.920;2024-01-30T04:39:15;102240.20;;;2.14;78.80
35577;BME280;21680;52.400;16.920;2024-01-30T04:41:40;102234.35;;;2.12;78.82
35577;BME280;21680;52.400;16.920;2024-01-30T04:44:06;102237.73;;;2.14;78.66
35577;BME280;21680;52.400;16.920;2024-01-30T04:46:31;102234.39;;;2.14;78.94
35577;BME280;21680;52.400;16.920;2024-01-30T04:48:59;102234.73;;;2.13;78.84
35577;BME280;21680;52.400;16.920;2024-01-30T04:51:24;102232.96;;;2.13;78.65
35577;BME280;21680;52.400;16.920;2024-01-30T04:53:49;102232.25;;;2.13;78.72
35577;BME280;21680;52.400;16.920;2024-01-30T04:56:14;102229.41;;;2.11;78.71
35577;BME280;21680;52.400;16.920;2024-01-30T04:58:40;102231.16;;;2.10;78.62
35577;BME280;21680;52.400;16.920;2024-01-30T05:01:05;102227.38;;;2.06;78.46
35577;BME280;21680;52.400;16.920;2024-01-30T05:03:33;102228.96;;;2.05;78.77
35577;BME280;21680;52.400;16.920;2024-01-30T05:05:59;102230.40;;;2.08;78.70
35577;BME280;21680;52.400;16.920;2024-01-30T05:08:24;102233.22;;;2.08;78.69
35577;BME280;21680;52.400;16.920;2024-01-30T05:10:49;102234.45;;;2.07;78.71
35577;BME280;21680;52.400;16.920;2024-01-30T05:13:15;102227.02;;;2.06;78.77
35577;BME280;21680;52.400;16.920;2024-01-30T05:15:40;102231.24;;;2.05;78.53
35577;BME280;21680;52.400;16.920;2024-01-30T05:18:05;102233.09;;;2.00;78.43
35577;BME280;21680;52.400;16.920;2024-01-30T05:20:31;102232.91;;;2.00;78.68
35577;BME280;21680;52.400;16.920;2024-01-30T05:22:56;102235.24;;;2.02;78.70
35577;BME280;21680;52.400;16.920;2024-01-30T05:25:21;102237.16;;;2.01;78.65
35577;BME280;21680;52.400;16.920;2024-01-30T05:27:46;102239.94;;;1.99;78.51
35577;BME280;21680;52.400;16.920;2024-01-30T05:30:12;102235.86;;;1.97;78.70
35577;BME280;21680;52.400;16.920;2024-01-30T05:32:38;102239.38;;;1.96;78.49
35577;BME280;21680;52.400;16.920;2024-01-30T05:35:04;102240.42;;;1.96;78.61
35577;BME280;21680;52.400;16.920;2024-01-30T05:37:30;102236.12;;;1.92;78.37
35577;BME280;21680;52.400;16.920;2024-01-30T05:39:55;102236.27;;;1.91;78.43
35577;BME280;21680;52.400;16.920;2024-01-30T05:42:20;102234.88;;;1.91;78.59
35577;BME280;21680;52.400;16.920;2024-01-30T05:44:46;102237.38;;;1.93;78.60
35577;BME280;21680;52.400;16.920;2024-01-30T05:47:11;102238.04;;;1.91;78.49
35577;BME280;21680;52.400;16.920;2024-01-30T05:49:36;102235.72;;;1.89;78.57
35577;BME280;21680;52.400;16.920;2024-01-30T05:52:03;102238.05;;;1.91;78.68
35577;BME280;21680;52.400;16.920;2024-01-30T05:54:28;102235.77;;;1.92;78.71
35577;BME280;21680;52.400;16.920;2024-01-30T05:56:54;102237.54;;;1.92;78.49
35577;BME280;21680;52.400;16.920;2024-01-30T05:59:19;102232.45;;;1.94;78.57
35577;BME280;21680;52.400;16.920;2024-01-30T06:01:48;102233.69;;;1.93;78.71
35577;BME280;21680;52.400;16.920;2024-01-30T06:04:14;102234.20;;;1.93;78.61
35577;BME280;21680;52.400;16.920;2024-01-30T06:06:40;102234.58;;;1.95;78.67
35577;BME280;21680;52.400;16.920;2024-01-30T06:09:06;102238.44;;;1.93;78.37
35577;BME280;21680;52.400;16.920;2024-01-30T06:11:34;102237.15;;;1.90;78.51
35577;BME280;21680;52.400;16.920;2024-01-30T06:13:59;102236.62;;;1.90;78.37
35577;BME280;21680;52.400;16.920;2024-01-30T06:16:24;102242.29;;;1.92;78.66
35577;BME280;21680;52.400;16.920;2024-01-30T06:18:54;102240.02;;;1.93;78.52
35577;BME280;21680;52.400;16.920;2024-01-30T06:21:20;102238.75;;;1.91;78.49
35577;BME280;21680;52.400;16.920;2024-01-30T06:23:45;102238.73;;;1.90;78.71
35577;BME280;21680;52.400;16.920;2024-01-30T06:26:11;102234.52;;;1.91;78.51
35577;BME280;21680;52.400;16.920;2024-01-30T06:28:36;102231.35;;;1.91;78.42
35577;BME280;21680;52.400;16.920;2024-01-30T06:31:01;102230.64;;;1.91;78.53
35577;BME280;21680;52.400;16.920;2024-01-30T06:33:26;102232.94;;;1.91;78.62
35577;BME280;21680;52.400;16.920;2024-01-30T06:35:52;102236.17;;;1.94;78.61
35577;BME280;21680;52.400;16.920;2024-01-30T06:38:17;102235.80;;;1.94;78.63
35577;BME280;21680;52.400;16.920;2024-01-30T06:40:42;102236.85;;;1.93;78.45
35577;BME280;21680;52.400;16.920;2024-01-30T06:43:08;102236.15;;;1.93;78.62
35577;BME280;21680;52.400;16.920;2024-01-30T06:45:33;102236.33;;;1.94;78.62
35577;BME280;21680;52.400;16.920;2024-01-30T06:48:00;102232.96;;;1.92;78.60
35577;BME280;21680;52.400;16.920;2024-01-30T06:50:25;102231.73;;;1.92;78.62
35577;BME280;21680;52.400;16.920;2024-01-30T06:52:51;102234.52;;;1.91;78.48
35577;BME280;21680;52.400;16.920;2024-01-30T06:55:17;102232.73;;;1.90;78.68
35577;BME280;21680;52.400;16.920;2024-01-30T06:57:43;102233.80;;;1.91;78.47
35577;BME280;21680;52.400;16.920;2024-01-30T07:00:08;102232.92;;;1.90;78.51
35577;BME280;21680;52.400;16.920;2024-01-30T07:02:34;102234.17;;;1.91;78.72
35577;BME280;21680;52.400;16.920;2024-01-30T07:04:59;102237.01;;;1.92;78.68
35577;BME280;21680;52.400;16.920;2024-01-30T07:07:24;102234.90;;;1.92;78.72
35577;BME280;21680;52.400;16.920;2024-01-30T07:09:49;102232.09;;;1.93;78.64
35577;BME280;21680;52.400;16.920;2024-01-30T07:12:18;102232.46;;;1.94;78.63
35577;BME280;21680;52.400;16.920;2024-01-30T07:14:43;102232.27;;;1.93;78.61
35577;BME280;21680;52.400;16.920;2024-01-30T07:17:08;102238.27;;;1.94;78.51
35577;BME280;21680;52.400;16.920;2024-01-30T07:19:34;102238.94;;;1.91;78.51
35577;BME280;21680;52.400;16.920;2024-01-30T07:22:00;102239.15;;;1.94;78.66
35577;BME280;21680;52.400;16.920;2024-01-30T07:24:25;102246.61;;;1.97;78.80
35577;BME280;21680;52.400;16.920;2024-01-30T07:26:51;102246.84;;;2.00;78.75
35577;BME280;21680;52.400;16.920;2024-01-30T07:29:16;102246.39;;;2.05;78.73
35577;BME280;21680;52.400;16.920;2024-01-30T07:31:41;102246.77;;;2.06;78.76
35577;BME280;21680;52.400;16.920;2024-01-30T07:34:06;102249.42;;;2.06;78.73
35577;BME280;21680;52.400;16.920;2024-01-30T07:36:32;102246.96;;;2.07;78.71
35577;BME280;21680;52.400;16.920;2024-01-30T07:38:57;102250.23;;;2.12;78.85
35577;BME280;21680;52.400;16.920;2024-01-30T07:41:23;102248.46;;;2.12;78.56
35577;BME280;21680;52.400;16.920;2024-01-30T07:43:50;102254.16;;;2.15;78.66
35577;BME280;21680;52.400;16.920;2024-01-30T07:46:15;102251.40;;;2.19;78.73
35577;BME280;21680;52.400;16.920;2024-01-30T07:48:41;102249.50;;;2.22;78.79
35577;BME280;21680;52.400;16.920;2024-01-30T07:51:06;102244.95;;;2.23;78.59
35577;BME280;21680;52.400;16.920;2024-01-30T07:53:31;102248.00;;;2.26;78.86
35577;BME280;21680;52.400;16.920;2024-01-30T07:55:56;102247.54;;;2.31;78.78
35577;BME280;21680;52.400;16.920;2024-01-30T07:58:22;102244.39;;;2.34;78.73
35577;BME280;21680;52.400;16.920;2024-01-30T08:00:50;102242.17;;;2.37;78.72
35577;BME280;21680;52.400;16.920;2024-01-30T08:03:16;102243.29;;;2.41;78.86
35577;BME280;21680;52.400;16.920;2024-01-30T08:05:43;102243.70;;;2.45;78.66
35577;BME280;21680;52.400;16.920;2024-01-30T08:08:09;102242.16;;;2.48;78.68
35577;BME280;21680;52.400;16.920;2024-01-30T08:10:34;102240.79;;;2.50;78.75
35577;BME280;21680;52.400;16.920;2024-01-30T08:12:59;102241.02;;;2.54;78.72
35577;BME280;21680;52.400;16.920;2024-01-30T08:15:24;102238.23;;;2.57;78.79
35577;BME280;21680;52.400;16.920;2024-01-30T08:17:49;102242.51;;;2.61;78.66
35577;BME280;21680;52.400;16.920;2024-01-30T08:20:15;102242.74;;;2.66;78.95
35577;BME280;21680;52.400;16.920;2024-01-30T08:22:41;102242.08;;;2.69;78.68
35577;BME280;21680;52.400;16.920;2024-01-30T08:25:07;102239.51;;;2.74;78.78
35577;BME280;21680;52.400;16.920;2024-01-30T08:27:33;102243.14;;;2.81;78.82
35577;BME280;21680;52.400;16.920;2024-01-30T08:30:00;102242.69;;;2.87;78.78
35577;BME280;21680;52.400;16.920;2024-01-30T08:32:26;102237.61;;;2.89;78.78
35577;BME280;21680;52.400;16.920;2024-01-30T08:34:51;102238.20;;;2.93;78.89
35577;BME280;21680;52.400;16.920;2024-01-30T08:37:17;102233.13;;;2.98;78.90
35577;BME280;21680;52.400;16.920;2024-01-30T08:39:43;102231.77;;;3.02;78.77
35577;BME280;21680;52.400;16.920;2024-01-30T08:42:09;102226.86;;;3.05;78.73
35577;BME280;21680;52.400;16.920;2024-01-30T08:44:35;102229.00;;;3.06;78.79
35577;BME280;21680;52.400;16.920;2024-01-30T08:47:00;102232.77;;;3.11;78.72
35577;BME280;21680;52.400;16.920;2024-01-30T08:49:26;102234.05;;;3.15;78.81
35577;BME280;21680;52.400;16.920;2024-01-30T08:51:51;102234.29;;;3.20;78.76
35577;BME280;21680;52.400;16.920;2024-01-30T08:54:17;102238.23;;;3.25;78.66
35577;BME280;21680;52.400;16.920;2024-01-30T08:56:42;102238.83;;;3.30;78.67
35577;BME280;21680;52.400;16.920;2024-01-30T08:59:08;102238.35;;;3.33;78.76
35577;BME280;21680;52.400;16.920;2024-01-30T09:01:33;102235.55;;;3.36;78.75
35577;BME280;21680;52.400;16.920;2024-01-30T09:03:59;102236.31;;;3.41;78.62
35577;BME280;21680;52.400;16.920;2024-01-30T09:06:24;102233.89;;;3.45;78.92
35577;BME280;21680;52.400;16.920;2024-01-30T09:08:51;102233.04;;;3.48;78.64
35577;BME280;21680;52.400;16.920;2024-01-30T09:11:16;102231.48;;;3.52;78.54
35577;BME280;21680;52.400;16.920;2024-01-30T09:13:42;102232.59;;;3.54;78.58
35577;BME280;21680;52.400;16.920;2024-01-30T09:16:09;102228.21;;;3.59;78.60
35577;BME280;21680;52.400;16.920;2024-01-30T09:18:34;102227.19;;;3.63;78.58
35577;BME280;21680;52.400;16.920;2024-01-30T09:20:59;102225.10;;;3.66;78.51
35577;BME280;21680;52.400;16.920;2024-01-30T09:23:27;102224.10;;;3.72;78.67
35577;BME280;21680;52.400;16.920;2024-01-30T09:25:53;102226.12;;;3.79;78.77
35577;BME280;21680;52.400;16.920;2024-01-30T09:28:18;102220.88;;;3.85;78.64
35577;BME280;21680;52.400;16.920;2024-01-30T09:30:43;102220.38;;;3.89;78.61
35577;BME280;21680;52.400;16.920;2024-01-30T09:33:09;102216.17;;;3.94;78.36
35577;BME280;21680;52.400;16.920;2024-01-30T09:35:35;102210.55;;;3.98;78.46
35577;BME280;21680;52.400;16.920;2024-01-30T09:38:01;102207.23;;;4.02;78.48
35577;BME280;21680;52.400;16.920;2024-01-30T09:40:27;102205.31;;;4.06;78.47
35577;BME280;21680;52.400;16.920;2024-01-30T09:42:53;102204.27;;;4.09;78.47
35577;BME280;21680;52.400;16.920;2024-01-30T09:45:23;102197.40;;;4.11;78.39
35577;BME280;21680;52.400;16.920;2024-01-30T09:47:49;102196.36;;;4.14;78.47
35577;BME280;21680;52.400;16.920;2024-01-30T09:50:15;102194.28;;;4.20;78.51
35577;BME280;21680;52.400;16.920;2024-01-30T09:52:43;102195.03;;;4.25;78.48
35577;BME280;21680;52.400;16.920;2024-01-30T09:55:09;102195.05;;;4.28;78.39
35577;BME280;21680;52.400;16.920;2024-01-30T09:57:35;102192.60;;;4.32;78.35
35577;BME280;21680;52.400;16.920;2024-01-30T10:00:00;102195.98;;;4.36;78.25
35577;BME280;21680;52.400;16.920;2024-01-30T10:02:26;102190.70;;;4.38;78.19
35577;BME280;21680;52.400;16.920;2024-01-30T10:04:52;102185.92;;;4.40;78.28
35577;BME280;21680;52.400;16.920;2024-01-30T10:07:18;102183.27;;;4.41;78.09
35577;BME280;21680;52.400;16.920;2024-01-30T10:09:44;102182.95;;;4.44;78.25
35577;BME280;21680;52.400;16.920;2024-01-30T10:12:09;102182.77;;;4.44;78.18
35577;BME280;21680;52.400;16.920;2024-01-30T10:14:39;102182.77;;;4.45;78.24
35577;BME280;21680;52.400;16.920;2024-01-30T10:17:04;102182.08;;;4.47;78.08
35577;BME280;21680;52.400;16.920;2024-01-30T10:19:31;102179.96;;;4.47;78.05
35577;BME280;21680;52.400;16.920;2024-01-30T10:21:56;102180.67;;;4.50;78.00
35577;BME280;21680;52.400;16.920;2024-01-30T10:24:25;102175.92;;;4.52;78.03
35577;BME280;21680;52.400;16.920;2024-01-30T10:26:50;102171.69;;;4.55;77.86
35577;BME280;21680;52.400;16.920;2024-01-30T10:29:17;102176.49;;;4.59;77.96
35577;BME280;21680;52.400;16.920;2024-01-30T10:31:42;102168.54;;;4.62;77.91
35577;BME280;21680;52.400;16.920;2024-01-30T10:34:07;102164.84;;;4.67;77.96
35577;BME280;21680;52.400;16.920;2024-01-30T10:36:39;102162.03;;;4.71;78.01
35577;BME280;21680;52.400;16.920;2024-01-30T10:39:06;102162.95;;;4.77;77.93
35577;BME280;21680;52.400;16.920;2024-01-30T10:41:39;102162.08;;;4.81;77.86
35577;BME280;21680;52.400;16.920;2024-01-30T10:44:09;102157.15;;;4.86;77.83
35577;BME280;21680;52.400;16.920;2024-01-30T10:46:37;102158.05;;;4.91;77.73
35577;BME280;21680;52.400;16.920;2024-01-30T10:49:05;102158.06;;;4.95;77.71
35577;BME280;21680;52.400;16.920;2024-01-30T10:51:31;102155.25;;;5.00;77.85
35577;BME280;21680;52.400;16.920;2024-01-30T10:53:57;102156.52;;;5.06;77.69
35577;BME280;21680;52.400;16.920;2024-01-30T10:56:23;102152.10;;;5.11;77.68
35577;BME280;21680;52.400;16.920;2024-01-30T10:58:50;102149.98;;;5.14;77.50
35577;BME280;21680;52.400;16.920;2024-01-30T11:01:18;102150.34;;;5.17;77.53
35577;BME280;21680;52.400;16.920;2024-01-30T11:03:45;102147.15;;;5.22;77.57
35577;BME280;21680;52.400;16.920;2024-01-30T11:06:11;102147.14;;;5.26;77.35
35577;BME280;21680;52.400;16.920;2024-01-30T11:08:43;102142.90;;;5.28;77.29
35577;BME280;21680;52.400;16.920;2024-01-30T11:11:09;102138.84;;;5.32;77.30
35577;BME280;21680;52.400;16.920;2024-01-30T11:13:35;102139.02;;;5.34;77.40
35577;BME280;21680;52.400;16.920;2024-01-30T11:16:04;102136.72;;;5.37;77.29
35577;BME280;21680;52.400;16.920;2024-01-30T11:18:31;102134.24;;;5.42;77.21
35577;BME280;21680;52.400;16.920;2024-01-30T11:20:57;102128.40;;;5.48;77.12
35577;BME280;21680;52.400;16.920;2024-01-30T11:23:23;102122.56;;;5.53;77.13
35577;BME280;21680;52.400;16.920;2024-01-30T11:25:48;102122.38;;;5.55;77.00
35577;BME280;21680;52.400;16.920;2024-01-30T11:28:15;102119.20;;;5.57;77.01
35577;BME280;21680;52.400;16.920;2024-01-30T11:30:42;102111.92;;;5.59;76.92
35577;BME280;21680;52.400;16.920;2024-01-30T11:33:11;102112.81;;;5.64;76.79
35577;BME280;21680;52.400;16.920;2024-01-30T11:35:39;102107.67;;;5.64;76.85
35577;BME280;21680;52.400;16.920;2024-01-30T11:38:06;102107.66;;;5.66;76.83
35577;BME280;21680;52.400;16.920;2024-01-30T11:40:32;102100.93;;;5.67;76.81
35577;BME280;21680;52.400;16.920;2024-01-30T11:42:59;102103.77;;;5.70;76.66
35577;BME280;21680;52.400;16.920;2024-01-30T11:45:26;102091.89;;;5.72;76.79
35577;BME280;21680;52.400;16.920;2024-01-30T11:47:53;102091.70;;;5.75;76.61
35577;BME280;21680;52.400;16.920;2024-01-30T11:50:19;102088.69;;;5.81;76.68
35577;BME280;21680;52.400;16.920;2024-01-30T11:52:45;102086.02;;;5.86;76.59
35577;BME280;21680;52.400;16.920;2024-01-30T11:55:10;102086.23;;;5.91;76.58
35577;BME280;21680;52.400;16.920;2024-01-30T11:57:37;102084.98;;;5.97;76.54
35577;BME280;21680;52.400;16.920;2024-01-30T12:00:06;102080.53;;;6.03;76.45
35577;BME280;21680;52.400;16.920;2024-01-30T12:02:41;102074.32;;;6.08;76.38
35577;BME280;21680;52.400;16.920;2024-01-30T12:05:07;102073.25;;;6.12;76.36
35577;BME280;21680;52.400;16.920;2024-01-30T12:07:33;102070.75;;;6.14;76.28
35577;BME280;21680;52.400;16.920;2024-01-30T12:09:59;102063.65;;;6.17;76.25
35577;BME280;21680;52.400;16.920;2024-01-30T12:12:25;102062.57;;;6.22;76.32
35577;BME280;21680;52.400;16.920;2024-01-30T12:14:51;102060.61;;;6.28;76.21
35577;BME280;21680;52.400;16.920;2024-01-30T12:17:31;102056.15;;;6.31;76.09
35577;BME280;21680;52.400;16.920;2024-01-30T12:22:36;102053.47;;;6.37;76.09
35577;BME280;21680;52.400;16.920;2024-01-30T12:25:17;102055.05;;;6.40;75.97
35577;BME280;21680;52.400;16.920;2024-01-30T12:27:45;102054.86;;;6.44;76.00
35577;BME280;21680;52.400;16.920;2024-01-30T12:30:31;102055.56;;;6.46;75.86
35577;BME280;21680;52.400;16.920;2024-01-30T12:32:56;102050.95;;;6.47;75.78
35577;BME280;21680;52.400;16.920;2024-01-30T12:35:23;102050.21;;;6.52;75.77
35577;BME280;21680;52.400;16.920;2024-01-30T12:37:49;102047.88;;;6.59;75.71
35577;BME280;21680;52.400;16.920;2024-01-30T12:40:15;102045.35;;;6.67;75.64
35577;BME280;21680;52.400;16.920;2024-01-30T12:42:41;102040.90;;;6.69;75.55
35577;BME280;21680;52.400;16.920;2024-01-30T12:45:11;102036.80;;;6.72;75.57
35577;BME280;21680;52.400;16.920;2024-01-30T12:47:37;102035.54;;;6.75;75.54